sensor_id;sensor_type;location;lat;lon;timestamp;pressure;altitude;pressure_sealevel;temperature;humidity
51928;BME280;37953;52.806;18.270;2023-04-30T00:02:00;100629.53;;;11.45;100.00
51928;BME280;37953;52.806;18.270;2023-04-30T00:04:26;100628.66;;;11.39;100.00
51928;BME280;37953;52.806;18.270;2023-04-30T00:06:52;100628.66;;;11.38;100.00
51928;BME280;37953;52.806;18.270;2023-04-30T00:09:18;100629.50;;;11.34;100.00
51928;BME280;37953;52.806;18.270;2023-04-30T00:11:44;100632.09;;;11.32;100.00
51928;BME280;37953;52.806;18.270;2023-04-30T00:14:10;100639.91;;;11.28;100.00
51928;BME280;37953;52.806;18.270;2023-04-30T00:16:36;100640.78;;;11.27;100.00
51928;BME280;37953;52.806;18.270;2023-04-30T00:19:02;100639.88;;;11.23;100.00
51928;BME280;37953;52.806;18.270;2023-04-30T00:21:28;100652.03;;;11.18;100.00
51928;BME280;37953;52.806;18.270;2023-04-30T00:23:54;100646.81;;;11.13;100.00
51928;BME280;37953;52.806;18.270;2023-04-30T00:26:20;100650.25;;;11.12;100.00
51928;BME280;37953;52.806;18.270;2023-04-30T00:28:46;100652.84;;;11.11;100.00
51928;BME280;37953;52.806;18.270;2023-04-30T00:31:12;100658.91;;;11.07;100.00
51928;BME280;37953;52.806;18.270;2023-04-30T00:33:38;100661.50;;;11.05;100.00
51928;BME280;37953;52.806;18.270;2023-04-30T00:36:04;100661.50;;;11.02;100.00
51928;BME280;37953;52.806;18.270;2023-04-30T00:38:30;100668.44;;;10.98;100.00
51928;BME280;37953;52.806;18.270;2023-04-30T00:40:56;100674.47;;;10.97;100.00
51928;BME280;37953;52.806;18.270;2023-04-30T00:43:22;100679.66;;;10.96;100.00
51928;BME280;37953;52.806;18.270;2023-04-30T00:45:48;100678.78;;;10.91;100.00
51928;BME280;37953;52.806;18.270;2023-04-30T00:48:14;100679.63;;;10.87;100.00
51928;BME280;37953;52.806;18.270;2023-04-30T00:50:47;100682.22;;;10.87;100.00
51928;BME280;37953;52.806;18.270;2023-04-30T00:53:13;100683.94;;;10.82;100.00
51928;BME280;37953;52.806;18.270;2023-04-30T00:55:40;100688.25;;;10.81;100.00
51928;BME280;37953;52.806;18.270;2023-04-30T00:58:07;100696.06;;;10.79;100.00
51928;BME280;37953;52.806;18.270;2023-04-30T01:00:33;100692.56;;;10.76;100.00
51928;BME280;37953;52.806;18.270;2023-04-30T01:02:59;100688.19;;;10.72;100.00
51928;BME280;37953;52.806;18.270;2023-04-30T01:05:25;100697.69;;;10.68;100.00
51928;BME280;37953;52.806;18.270;2023-04-30T01:07:53;100702.91;;;10.65;100.00
51928;BME280;37953;52.806;18.270;2023-04-30T01:10:22;100701.13;;;10.64;100.00
51928;BME280;37953;52.806;18.270;2023-04-30T01:13:02;100709.81;;;10.65;100.00
51928;BME280;37953;52.806;18.270;2023-04-30T01:16:32;100704.63;;;10.66;100.00
51928;BME280;37953;52.806;18.270;2023-04-30T01:18:43;100714.09;;;10.59;100.00
51928;BME280;37953;52.806;18.270;2023-04-30T01:21:11;100716.69;;;10.55;100.00
51928;BME280;37953;52.806;18.270;2023-04-30T01:26:50;100721.84;;;10.53;100.00
51928;BME280;37953;52.806;18.270;2023-04-30T01:29:19;100721.81;;;10.44;100.00
51928;BME280;37953;52.806;18.270;2023-04-30T01:31:45;100729.56;;;10.43;100.00
51928;BME280;37953;52.806;18.270;2023-04-30T01:34:11;100725.22;;;10.38;100.00
51928;BME280;37953;52.806;18.270;2023-04-30T01:36:48;100733.88;;;10.39;100.00
51928;BME280;37953;52.806;18.270;2023-04-30T01:42:20;100737.31;;;10.33;100.00
51928;BME280;37953;52.806;18.270;2023-04-30T01:45:15;100739.91;;;10.33;100.00
51928;BME280;37953;52.806;18.270;2023-04-30T01:48:05;100743.34;;;10.31;100.00
51928;BME280;37953;52.806;18.270;2023-04-30T01:50:43;100749.28;;;10.24;100.00
51928;BME280;37953;52.806;18.270;2023-04-30T01:53:33;100751.03;;;10.23;100.00
51928;BME280;37953;52.806;18.270;2023-04-30T01:56:27;100753.59;;;10.18;100.00
51928;BME280;37953;52.806;18.270;2023-04-30T01:58:56;100763.94;;;10.14;100.00
51928;BME280;37953;52.806;18.270;2023-04-30T02:01:45;100762.22;;;10.14;100.00
51928;BME280;37953;52.806;18.270;2023-04-30T02:04:11;100770.78;;;10.07;100.00
51928;BME280;37953;52.806;18.270;2023-04-30T02:06:37;100768.13;;;10.03;100.00
51928;BME280;37953;52.806;18.270;2023-04-30T02:09:03;100769.84;;;9.99;100.00
51928;BME280;37953;52.806;18.270;2023-04-30T02:11:31;100772.44;;;9.97;100.00
51928;BME280;37953;52.806;18.270;2023-04-30T02:13:57;100761.13;;;9.94;100.00
51928;BME280;37953;52.806;18.270;2023-04-30T02:16:23;100759.34;;;9.90;100.00
51928;BME280;37953;52.806;18.270;2023-04-30T02:18:49;100761.03;;;9.86;100.00
51928;BME280;37953;52.806;18.270;2023-04-30T02:21:15;100767.97;;;9.84;100.00
51928;BME280;37953;52.806;18.270;2023-04-30T02:23:41;100765.31;;;9.81;100.00
51928;BME280;37953;52.806;18.270;2023-04-30T02:26:07;100773.94;;;9.77;100.00
51928;BME280;37953;52.806;18.270;2023-04-30T02:28:33;100781.69;;;9.74;100.00
51928;BME280;37953;52.806;18.270;2023-04-30T02:30:59;100779.06;;;9.72;100.00
51928;BME280;37953;52.806;18.270;2023-04-30T02:33:25;100779.03;;;9.69;100.00
51928;BME280;37953;52.806;18.270;2023-04-30T02:35:51;100779.91;;;9.68;100.00
51928;BME280;37953;52.806;18.270;2023-04-30T02:38:19;100789.38;;;9.66;100.00
51928;BME280;37953;52.806;18.270;2023-04-30T02:40:45;100792.78;;;9.62;100.00
51928;BME280;37953;52.806;18.270;2023-04-30T02:43:11;100787.56;;;9.59;100.00
51928;BME280;37953;52.806;18.270;2023-04-30T02:45:37;100791.00;;;9.55;100.00
51928;BME280;37953;52.806;18.270;2023-04-30T02:48:03;100791.78;;;9.52;100.00
51928;BME280;37953;52.806;18.270;2023-04-30T02:50:29;100785.72;;;9.49;100.00
51928;BME280;37953;52.806;18.270;2023-04-30T02:52:55;100796.94;;;9.46;100.00
51928;BME280;37953;52.806;18.270;2023-04-30T02:55:21;100795.16;;;9.44;100.00
51928;BME280;37953;52.806;18.270;2023-04-30T02:57:47;100801.16;;;9.41;100.00
51928;BME280;37953;52.806;18.270;2023-04-30T03:00:13;100803.72;;;9.40;100.00
51928;BME280;37953;52.806;18.270;2023-04-30T03:02:40;100801.13;;;9.36;100.00
51928;BME280;37953;52.806;18.270;2023-04-30T03:05:06;100809.72;;;9.34;100.00
51928;BME280;37953;52.806;18.270;2023-04-30T03:07:32;100800.16;;;9.30;100.00
51928;BME280;37953;52.806;18.270;2023-04-30T03:09:58;100810.50;;;9.28;100.00
51928;BME280;37953;52.806;18.270;2023-04-30T03:12:24;100798.34;;;9.24;100.00
51928;BME280;37953;52.806;18.270;2023-04-30T03:14:50;100810.44;;;9.22;100.00
51928;BME280;37953;52.806;18.270;2023-04-30T03:17:16;100815.59;;;9.19;100.00
51928;BME280;37953;52.806;18.270;2023-04-30T03:19:42;100816.41;;;9.16;100.00
51928;BME280;37953;52.806;18.270;2023-04-30T03:22:11;100818.97;;;9.15;100.00
51928;BME280;37953;52.806;18.270;2023-04-30T03:24:37;100818.13;;;9.14;100.00
51928;BME280;37953;52.806;18.270;2023-04-30T03:27:03;100825.81;;;9.10;100.00
51928;BME280;37953;52.806;18.270;2023-04-30T03:29:29;100821.47;;;9.09;100.00
51928;BME280;37953;52.806;18.270;2023-04-30T03:31:55;100828.34;;;9.07;100.00
51928;BME280;37953;52.806;18.270;2023-04-30T03:34:21;100830.09;;;9.06;100.00
51928;BME280;37953;52.806;18.270;2023-04-30T03:36:47;100828.31;;;9.04;100.00
51928;BME280;37953;52.806;18.270;2023-04-30T03:39:14;100835.22;;;9.02;100.00
51928;BME280;37953;52.806;18.270;2023-04-30T03:41:40;100843.81;;;9.01;100.00
51928;BME280;37953;52.806;18.270;2023-04-30T03:44:06;100837.75;;;8.99;100.00
51928;BME280;37953;52.806;18.270;2023-04-30T03:46:43;100847.22;;;8.96;100.00
51928;BME280;37953;52.806;18.270;2023-04-30T03:49:09;100849.75;;;8.95;100.00
51928;BME280;37953;52.806;18.270;2023-04-30T03:51:36;100848.00;;;8.92;100.00
51928;BME280;37953;52.806;18.270;2023-04-30T03:54:06;100856.63;;;8.91;100.00
51928;BME280;37953;52.806;18.270;2023-04-30T03:56:33;100850.56;;;8.89;100.00
51928;BME280;37953;52.806;18.270;2023-04-30T03:59:00;100859.16;;;8.88;100.00
51928;BME280;37953;52.806;18.270;2023-04-30T04:01:28;100860.00;;;8.86;100.00
51928;BME280;37953;52.806;18.270;2023-04-30T04:03:54;100863.41;;;8.83;100.00
51928;BME280;37953;52.806;18.270;2023-04-30T04:06:20;100867.66;;;8.80;100.00
51928;BME280;37953;52.806;18.270;2023-04-30T04:08:46;100866.81;;;8.79;100.00
51928;BME280;37953;52.806;18.270;2023-04-30T04:11:12;100878.03;;;8.80;100.00
51928;BME280;37953;52.806;18.270;2023-04-30T04:13:38;100879.78;;;8.81;100.00
51928;BME280;37953;52.806;18.270;2023-04-30T04:16:04;100888.44;;;8.81;100.00
51928;BME280;37953;52.806;18.270;2023-04-30T04:18:30;100891.84;;;8.80;100.00
51928;BME280;37953;52.806;18.270;2023-04-30T04:20:56;100895.28;;;8.79;100.00
51928;BME280;37953;52.806;18.270;2023-04-30T04:23:22;100890.94;;;8.78;100.00
51928;BME280;37953;52.806;18.270;2023-04-30T04:25:48;100895.25;;;8.77;100.00
51928;BME280;37953;52.806;18.270;2023-04-30T04:28:15;100898.72;;;8.76;100.00
51928;BME280;37953;52.806;18.270;2023-04-30T04:30:41;100904.75;;;8.77;100.00
51928;BME280;37953;52.806;18.270;2023-04-30T04:33:08;100903.91;;;8.76;100.00
51928;BME280;37953;52.806;18.270;2023-04-30T04:35:35;100905.63;;;8.77;100.00
51928;BME280;37953;52.806;18.270;2023-04-30T04:38:01;100908.25;;;8.79;100.00
51928;BME280;37953;52.806;18.270;2023-04-30T04:40:27;100909.94;;;8.77;100.00
51928;BME280;37953;52.806;18.270;2023-04-30T04:42:53;100910.78;;;8.76;100.00
51928;BME280;37953;52.806;18.270;2023-04-30T04:45:20;100917.72;;;8.77;100.00
51928;BME280;37953;52.806;18.270;2023-04-30T04:47:46;100920.31;;;8.77;100.00
51928;BME280;37953;52.806;18.270;2023-04-30T04:50:13;100927.22;;;8.78;100.00
51928;BME280;37953;52.806;18.270;2023-04-30T04:52:39;100927.22;;;8.78;100.00
51928;BME280;37953;52.806;18.270;2023-04-30T04:55:06;100928.09;;;8.79;100.00
51928;BME280;37953;52.806;18.270;2023-04-30T04:57:32;100929.88;;;8.81;100.00
51928;BME280;37953;52.806;18.270;2023-04-30T04:59:58;100934.22;;;8.84;100.00
51928;BME280;37953;52.806;18.270;2023-04-30T05:02:24;100939.44;;;8.87;100.00
51928;BME280;37953;52.806;18.270;2023-04-30T05:04:50;100944.63;;;8.87;100.00
51928;BME280;37953;52.806;18.270;2023-04-30T05:07:16;100944.66;;;8.88;100.00
51928;BME280;37953;52.806;18.270;2023-04-30T05:09:44;100944.69;;;8.90;100.00
51928;BME280;37953;52.806;18.270;2023-04-30T05:12:16;100954.28;;;8.94;100.00
51928;BME280;37953;52.806;18.270;2023-04-30T05:14:41;100956.88;;;8.94;100.00
51928;BME280;37953;52.806;18.270;2023-04-30T05:17:08;100957.75;;;8.96;100.00
51928;BME280;37953;52.806;18.270;2023-04-30T05:19:34;100962.97;;;8.98;100.00
51928;BME280;37953;52.806;18.270;2023-04-30T05:22:00;100970.78;;;9.01;100.00
51928;BME280;37953;52.806;18.270;2023-04-30T05:24:28;100976.00;;;9.04;100.00
51928;BME280;37953;52.806;18.270;2023-04-30T05:26:54;100969.09;;;9.03;100.00
51928;BME280;37953;52.806;18.270;2023-04-30T05:31:48;100977.81;;;9.08;100.00
51928;BME280;37953;52.806;18.270;2023-04-30T05:34:14;100979.63;;;9.10;100.00
51928;BME280;37953;52.806;18.270;2023-04-30T05:36:42;100984.81;;;9.12;100.00
51928;BME280;37953;52.806;18.270;2023-04-30T05:39:09;100979.66;;;9.13;100.00
51928;BME280;37953;52.806;18.270;2023-04-30T05:41:35;100989.19;;;9.16;100.00
51928;BME280;37953;52.806;18.270;2023-04-30T05:44:01;100995.28;;;9.18;100.00
51928;BME280;37953;52.806;18.270;2023-04-30T05:46:29;101002.22;;;9.19;100.00
51928;BME280;37953;52.806;18.270;2023-04-30T05:48:55;100996.16;;;9.20;100.00
51928;BME280;37953;52.806;18.270;2023-04-30T05:51:21;101001.41;;;9.22;100.00
51928;BME280;37953;52.806;18.270;2023-04-30T05:53:47;101001.44;;;9.23;100.00
51928;BME280;37953;52.806;18.270;2023-04-30T05:56:13;101004.06;;;9.26;100.00
51928;BME280;37953;52.806;18.270;2023-04-30T05:58:40;101008.41;;;9.29;100.00
51928;BME280;37953;52.806;18.270;2023-04-30T06:01:06;101006.69;;;9.28;100.00
51928;BME280;37953;52.806;18.270;2023-04-30T06:03:36;101013.63;;;9.30;100.00
51928;BME280;37953;52.806;18.270;2023-04-30T06:06:03;101022.28;;;9.31;100.00
51928;BME280;37953;52.806;18.270;2023-04-30T06:08:29;101012.78;;;9.30;100.00
51928;BME280;37953;52.806;18.270;2023-04-30T06:10:55;101019.75;;;9.34;100.00
51928;BME280;37953;52.806;18.270;2023-04-30T06:13:22;101022.31;;;9.32;100.00
51928;BME280;37953;52.806;18.270;2023-04-30T06:15:47;101025.84;;;9.36;100.00
51928;BME280;37953;52.806;18.270;2023-04-30T06:18:14;101022.34;;;9.35;100.00
51928;BME280;37953;52.806;18.270;2023-04-30T06:20:40;101021.50;;;9.36;100.00
51928;BME280;37953;52.806;18.270;2023-04-30T06:23:07;101025.00;;;9.38;100.00
51928;BME280;37953;52.806;18.270;2023-04-30T06:25:33;101022.44;;;9.42;100.00
51928;BME280;37953;52.806;18.270;2023-04-30T06:28:00;101027.72;;;9.45;100.00
51928;BME280;37953;52.806;18.270;2023-04-30T06:30:26;101027.72;;;9.45;100.00
51928;BME280;37953;52.806;18.270;2023-04-30T06:32:52;101039.81;;;9.46;100.00
51928;BME280;37953;52.806;18.270;2023-04-30T06:35:18;101034.66;;;9.47;100.00
51928;BME280;37953;52.806;18.270;2023-04-30T06:37:47;101031.22;;;9.50;100.00
51928;BME280;37953;52.806;18.270;2023-04-30T06:40:13;101037.31;;;9.52;100.00
51928;BME280;37953;52.806;18.270;2023-04-30T06:42:39;101033.00;;;9.51;100.00
51928;BME280;37953;52.806;18.270;2023-04-30T06:45:05;101035.66;;;9.55;100.00
51928;BME280;37953;52.806;18.270;2023-04-30T06:47:32;101043.44;;;9.55;100.00
51928;BME280;37953;52.806;18.270;2023-04-30T06:49:59;101039.19;;;9.59;100.00
51928;BME280;37953;52.806;18.270;2023-04-30T06:52:29;101046.97;;;9.61;100.00
51928;BME280;37953;52.806;18.270;2023-04-30T06:54:55;101053.94;;;9.63;100.00
51928;BME280;37953;52.806;18.270;2023-04-30T06:57:21;101052.25;;;9.65;100.00
51928;BME280;37953;52.806;18.270;2023-04-30T06:59:47;101049.66;;;9.65;100.00
51928;BME280;37953;52.806;18.270;2023-04-30T07:02:13;101050.56;;;9.67;100.00
51928;BME280;37953;52.806;18.270;2023-04-30T07:04:39;101054.00;;;9.69;100.00
51928;BME280;37953;52.806;18.270;2023-04-30T07:07:05;101049.69;;;9.68;100.00
51928;BME280;37953;52.806;18.270;2023-04-30T07:09:31;101058.41;;;9.72;100.00
51928;BME280;37953;52.806;18.270;2023-04-30T07:11:57;101052.31;;;9.71;100.00
51928;BME280;37953;52.806;18.270;2023-04-30T07:14:23;101056.72;;;9.74;100.00
51928;BME280;37953;52.806;18.270;2023-04-30T07:16:50;101050.69;;;9.76;100.00
51928;BME280;37953;52.806;18.270;2023-04-30T07:19:16;101055.00;;;9.77;100.00
51928;BME280;37953;52.806;18.270;2023-04-30T07:21:42;101060.25;;;9.81;100.00
51928;BME280;37953;52.806;18.270;2023-04-30T07:24:08;101062.91;;;9.82;100.00
51928;BME280;37953;52.806;18.270;2023-04-30T07:26:47;101055.09;;;9.84;100.00
51928;BME280;37953;52.806;18.270;2023-04-30T07:29:13;101064.66;;;9.85;100.00
51928;BME280;37953;52.806;18.270;2023-04-30T07:31:39;101059.47;;;9.85;100.00
51928;BME280;37953;52.806;18.270;2023-04-30T07:34:05;101062.94;;;9.85;100.00
51928;BME280;37953;52.806;18.270;2023-04-30T07:36:31;101068.16;;;9.87;100.00
51928;BME280;37953;52.806;18.270;2023-04-30T07:38:57;101067.31;;;9.89;100.00
51928;BME280;37953;52.806;18.270;2023-04-30T07:41:23;101065.63;;;9.91;100.00
51928;BME280;37953;52.806;18.270;2023-04-30T07:43:50;101064.72;;;9.89;100.00
51928;BME280;37953;52.806;18.270;2023-04-30T07:46:16;101072.56;;;9.94;100.00
51928;BME280;37953;52.806;18.270;2023-04-30T07:48:42;101073.44;;;9.93;100.00
51928;BME280;37953;52.806;18.270;2023-04-30T07:51:08;101065.66;;;9.94;100.00
51928;BME280;37953;52.806;18.270;2023-04-30T07:53:34;101076.94;;;9.96;100.00
51928;BME280;37953;52.806;18.270;2023-04-30T07:56:00;101083.91;;;9.99;100.00
51928;BME280;37953;52.806;18.270;2023-04-30T07:58:26;101084.78;;;9.99;100.00
51928;BME280;37953;52.806;18.270;2023-04-30T08:00:52;101075.28;;;10.02;99.81
51928;BME280;37953;52.806;18.270;2023-04-30T08:03:18;101083.06;;;10.03;100.00
51928;BME280;37953;52.806;18.270;2023-04-30T08:05:46;101079.72;;;10.09;100.00
51928;BME280;37953;52.806;18.270;2023-04-30T08:08:12;101081.47;;;10.11;100.00
51928;BME280;37953;52.806;18.270;2023-04-30T08:10:38;101081.56;;;10.16;99.20
51928;BME280;37953;52.806;18.270;2023-04-30T08:13:04;101090.25;;;10.19;95.97
51928;BME280;37953;52.806;18.270;2023-04-30T08:15:32;101095.53;;;10.26;96.12
51928;BME280;37953;52.806;18.270;2023-04-30T08:17:58;101096.41;;;10.26;91.96
51928;BME280;37953;52.806;18.270;2023-04-30T08:20:24;101098.22;;;10.30;89.11
51928;BME280;37953;52.806;18.270;2023-04-30T08:22:51;101098.28;;;10.35;89.52
51928;BME280;37953;52.806;18.270;2023-04-30T08:25:17;101090.50;;;10.36;89.73
51928;BME280;37953;52.806;18.270;2023-04-30T08:27:43;101099.16;;;10.37;87.21
51928;BME280;37953;52.806;18.270;2023-04-30T08:30:10;101110.47;;;10.41;83.77
51928;BME280;37953;52.806;18.270;2023-04-30T08:32:36;101107.94;;;10.45;84.68
51928;BME280;37953;52.806;18.270;2023-04-30T08:35:15;101096.75;;;10.49;84.86
51928;BME280;37953;52.806;18.270;2023-04-30T08:37:44;101108.94;;;10.55;86.20
51928;BME280;37953;52.806;18.270;2023-04-30T08:40:13;101105.50;;;10.57;79.63
51928;BME280;37953;52.806;18.270;2023-04-30T08:42:45;101102.16;;;10.65;79.44
51928;BME280;37953;52.806;18.270;2023-04-30T08:45:12;101107.38;;;10.68;78.35
51928;BME280;37953;52.806;18.270;2023-04-30T08:47:45;101105.75;;;10.76;81.87
51928;BME280;37953;52.806;18.270;2023-04-30T08:50:11;101098.84;;;10.78;82.14
51928;BME280;37953;52.806;18.270;2023-04-30T08:52:37;101104.97;;;10.83;82.23
51928;BME280;37953;52.806;18.270;2023-04-30T08:55:06;101108.44;;;10.84;76.04
51928;BME280;37953;52.806;18.270;2023-04-30T08:57:33;101105.88;;;10.87;75.55
51928;BME280;37953;52.806;18.270;2023-04-30T08:59:59;101115.50;;;10.92;77.46
51928;BME280;37953;52.806;18.270;2023-04-30T09:02:25;101103.41;;;10.97;75.66
51928;BME280;37953;52.806;18.270;2023-04-30T09:04:51;101115.59;;;11.02;75.21
51928;BME280;37953;52.806;18.270;2023-04-30T09:07:18;101108.66;;;11.04;70.86
51928;BME280;37953;52.806;18.270;2023-04-30T09:09:45;101118.22;;;11.06;69.86
51928;BME280;37953;52.806;18.270;2023-04-30T09:12:15;101115.69;;;11.12;71.61
51928;BME280;37953;52.806;18.270;2023-04-30T09:15:04;101104.47;;;11.13;68.30
51928;BME280;37953;52.806;18.270;2023-04-30T09:17:31;101117.50;;;11.18;69.67
51928;BME280;37953;52.806;18.270;2023-04-30T09:20:10;101117.56;;;11.24;71.00
51928;BME280;37953;52.806;18.270;2023-04-30T09:22:38;101106.31;;;11.27;73.97
51928;BME280;37953;52.806;18.270;2023-04-30T09:25:06;101107.22;;;11.30;75.19
51928;BME280;37953;52.806;18.270;2023-04-30T09:27:32;101113.34;;;11.35;76.21
51928;BME280;37953;52.806;18.270;2023-04-30T09:29:58;101106.44;;;11.39;75.88
51928;BME280;37953;52.806;18.270;2023-04-30T09:32:25;101114.31;;;11.45;75.90
51928;BME280;37953;52.806;18.270;2023-04-30T09:34:51;101122.16;;;11.50;73.35
51928;BME280;37953;52.806;18.270;2023-04-30T09:37:17;101114.38;;;11.53;73.67
51928;BME280;37953;52.806;18.270;2023-04-30T09:39:55;101123.09;;;11.59;73.96
51928;BME280;37953;52.806;18.270;2023-04-30T09:42:24;101120.53;;;11.66;75.27
51928;BME280;37953;52.806;18.270;2023-04-30T09:44:52;101121.47;;;11.72;71.65
51928;BME280;37953;52.806;18.270;2023-04-30T09:47:28;101123.25;;;11.76;69.19
51928;BME280;37953;52.806;18.270;2023-04-30T09:49:58;101128.50;;;11.82;70.22
51928;BME280;37953;52.806;18.270;2023-04-30T09:52:24;101119.94;;;11.90;72.94
51928;BME280;37953;52.806;18.270;2023-04-30T09:54:50;101121.72;;;11.97;72.01
51928;BME280;37953;52.806;18.270;2023-04-30T09:57:20;101118.28;;;12.02;74.05
51928;BME280;37953;52.806;18.270;2023-04-30T09:59:47;101118.31;;;12.07;72.09
51928;BME280;37953;52.806;18.270;2023-04-30T10:02:17;101112.25;;;12.10;72.07
51928;BME280;37953;52.806;18.270;2023-04-30T10:04:48;101113.16;;;12.13;69.83
51928;BME280;37953;52.806;18.270;2023-04-30T10:07:19;101118.38;;;12.18;68.97
51928;BME280;37953;52.806;18.270;2023-04-30T10:09:49;101115.81;;;12.22;66.58
51928;BME280;37953;52.806;18.270;2023-04-30T10:12:33;101112.34;;;12.27;64.67
51928;BME280;37953;52.806;18.270;2023-04-30T10:17:41;101104.56;;;12.31;66.21
51928;BME280;37953;52.806;18.270;2023-04-30T10:20:12;101110.69;;;12.35;68.00
51928;BME280;37953;52.806;18.270;2023-04-30T10:22:39;101109.81;;;12.34;61.43
51928;BME280;37953;52.806;18.270;2023-04-30T10:25:07;101096.78;;;12.37;60.70
51928;BME280;37953;52.806;18.270;2023-04-30T10:27:39;101101.19;;;12.45;66.07
51928;BME280;37953;52.806;18.270;2023-04-30T10:30:09;101102.91;;;12.49;65.11
51928;BME280;37953;52.806;18.270;2023-04-30T10:33:14;101106.44;;;12.57;64.74
51928;BME280;37953;52.806;18.270;2023-04-30T10:36:02;101101.28;;;12.61;64.11
51928;BME280;37953;52.806;18.270;2023-04-30T10:38:35;101095.19;;;12.67;64.55
51928;BME280;37953;52.806;18.270;2023-04-30T10:41:05;101087.41;;;12.75;70.64
51928;BME280;37953;52.806;18.270;2023-04-30T10:43:37;101088.28;;;12.80;68.84
51928;BME280;37953;52.806;18.270;2023-04-30T10:46:04;101088.28;;;12.80;62.18
51928;BME280;37953;52.806;18.270;2023-04-30T10:48:32;101091.81;;;12.85;59.46
51928;BME280;37953;52.806;18.270;2023-04-30T10:51:08;101097.88;;;12.90;59.81
51928;BME280;37953;52.806;18.270;2023-04-30T10:53:35;101084.00;;;12.91;58.91
51928;BME280;37953;52.806;18.270;2023-04-30T10:56:08;101085.72;;;12.97;62.70
51928;BME280;37953;52.806;18.270;2023-04-30T10:58:36;101080.53;;;13.04;64.71
51928;BME280;37953;52.806;18.270;2023-04-30T11:01:21;101094.47;;;13.08;59.47
51928;BME280;37953;52.806;18.270;2023-04-30T11:04:09;101086.66;;;13.11;59.45
51928;BME280;37953;52.806;18.270;2023-04-30T11:07:10;101088.38;;;13.18;63.97
51928;BME280;37953;52.806;18.270;2023-04-30T11:09:37;101093.63;;;13.21;61.17
51928;BME280;37953;52.806;18.270;2023-04-30T11:12:10;101089.28;;;13.23;56.55
51928;BME280;37953;52.806;18.270;2023-04-30T11:14:40;101087.56;;;13.29;58.08
51928;BME280;37953;52.806;18.270;2023-04-30T11:17:08;101090.19;;;13.30;56.60
51928;BME280;37953;52.806;18.270;2023-04-30T11:19:34;101094.56;;;13.36;58.79
51928;BME280;37953;52.806;18.270;2023-04-30T11:25:02;101102.41;;;13.47;61.05
51928;BME280;37953;52.806;18.270;2023-04-30T11:27:37;101091.97;;;13.53;62.48
51928;BME280;37953;52.806;18.270;2023-04-30T11:30:23;101091.97;;;13.62;65.62
51928;BME280;37953;52.806;18.270;2023-04-30T11:32:51;101091.94;;;13.65;63.73
51928;BME280;37953;52.806;18.270;2023-04-30T11:35:27;101074.56;;;13.58;58.48
51928;BME280;37953;52.806;18.270;2023-04-30T11:37:54;101065.00;;;13.57;55.84
51928;BME280;37953;52.806;18.270;2023-04-30T11:40:26;101080.66;;;13.72;59.32
51928;BME280;37953;52.806;18.270;2023-04-30T11:42:54;101088.47;;;13.78;61.05
51928;BME280;37953;52.806;18.270;2023-04-30T11:45:21;101088.47;;;13.77;60.07
51928;BME280;37953;52.806;18.270;2023-04-30T11:47:50;101075.44;;;13.74;58.20
51928;BME280;37953;52.806;18.270;2023-04-30T11:50:18;101073.69;;;13.80;60.01
51928;BME280;37953;52.806;18.270;2023-04-30T11:52:50;101084.97;;;13.96;61.42
51928;BME280;37953;52.806;18.270;2023-04-30T11:55:21;101084.97;;;13.99;62.49
51928;BME280;37953;52.806;18.270;2023-04-30T11:57:49;101085.81;;;14.03;63.67
51928;BME280;37953;52.806;18.270;2023-04-30T12:00:17;101088.44;;;14.15;62.54
51928;BME280;37953;52.806;18.270;2023-04-30T12:02:50;101096.25;;;14.21;62.79
51928;BME280;37953;52.806;18.270;2023-04-30T12:05:23;101091.00;;;14.28;62.34
51928;BME280;37953;52.806;18.270;2023-04-30T12:07:55;101086.63;;;14.36;64.25
51928;BME280;37953;52.806;18.270;2023-04-30T12:10:24;101079.63;;;14.41;61.92
51928;BME280;37953;52.806;18.270;2023-04-30T12:12:51;101077.00;;;14.45;62.10
51928;BME280;37953;52.806;18.270;2023-04-30T12:15:21;101083.09;;;14.51;61.74
51928;BME280;37953;52.806;18.270;2023-04-30T12:17:56;101089.22;;;14.57;61.88
51928;BME280;37953;52.806;18.270;2023-04-30T12:20:29;101082.19;;;14.62;62.18
51928;BME280;37953;52.806;18.270;2023-04-30T12:22:57;101078.69;;;14.66;59.82
51928;BME280;37953;52.806;18.270;2023-04-30T12:25:23;101085.69;;;14.69;57.22
51928;BME280;37953;52.806;18.270;2023-04-30T12:27:53;101094.41;;;14.71;55.49
51928;BME280;37953;52.806;18.270;2023-04-30T12:30:23;101083.91;;;14.76;55.49
51928;BME280;37953;52.806;18.270;2023-04-30T12:32:52;101087.41;;;14.78;55.90
51928;BME280;37953;52.806;18.270;2023-04-30T12:35:22;101089.97;;;14.82;56.83
51928;BME280;37953;52.806;18.270;2023-04-30T12:37:53;101082.09;;;14.90;56.53
51928;BME280;37953;52.806;18.270;2023-04-30T12:40:26;101082.03;;;14.98;57.96
51928;BME280;37953;52.806;18.270;2023-04-30T12:43:19;101077.63;;;15.06;57.49
51928;BME280;37953;52.806;18.270;2023-04-30T12:45:45;101075.00;;;15.11;55.69
51928;BME280;37953;52.806;18.270;2023-04-30T12:48:14;101081.03;;;15.17;54.53
51928;BME280;37953;52.806;18.270;2023-04-30T12:50:40;101070.56;;;15.19;52.92
51928;BME280;37953;52.806;18.270;2023-04-30T12:53:07;101077.53;;;15.21;52.53
51928;BME280;37953;52.806;18.270;2023-04-30T12:55:33;101070.56;;;15.22;50.25
51928;BME280;37953;52.806;18.270;2023-04-30T13:00:47;101080.06;;;15.32;53.42
51928;BME280;37953;52.806;18.270;2023-04-30T13:03:19;101073.06;;;15.36;51.45